KYIP

UTC

Willow Run Airport

Van Buren Township, Michigan, United States

METAR - Current

KYIP 042153Z 03007KT 10SM CLR 25/02 A3006 RMK AO2 SLP176 T02500017

Observed

Jun 04 21:53 UTC

Flight Rules

VFR

Wind

030° at 7 KTS

Visibility

10 SM

Clouds

  • Clear skies

Temperature

25°C=77°F

Dew Point

2°C=36°F

Humidity

22%

Altimeter

30.06 Hg

Pressure

1018.0 hPa

METAR - Previous

KYIP 042053Z 08009KT 10SM CLR 25/01 A3007 RMK AO2 SLP178 T02500006 56010

Observed

Jun 04 20:53 UTC

Flight Rules

VFR

Wind

080° at 9 KTS

Visibility

10 SM

Clouds

  • Clear skies

Temperature

25°C=77°F

Dew Point

1°C=34°F

Humidity

21%

Altimeter

30.07 Hg

Pressure

1018.0 hPa